createdAt,value
2023-05-05T00:01:16.833Z,23.50
2023-05-05T00:04:22.838Z,35.00
2023-05-05T00:07:25.385Z,32.25
2023-05-05T00:10:28.272Z,28.75
2023-05-05T00:13:30.962Z,25.25
2023-05-05T00:16:33.709Z,28.25
2023-05-05T00:19:36.449Z,27.25
2023-05-05T00:22:39.185Z,26.50
2023-05-05T00:25:41.715Z,30.25
2023-05-05T00:28:44.654Z,24.25
2023-05-05T00:31:47.149Z,28.00
2023-05-05T00:34:49.866Z,29.00
2023-05-05T00:37:52.235Z,26.75
2023-05-05T00:40:55.105Z,29.50
2023-05-05T00:43:57.560Z,31.00
2023-05-05T00:47:00.387Z,21.67
2023-05-05T00:50:21.602Z,29.00
2023-05-05T00:53:26.738Z,23.67
2023-05-05T00:56:29.214Z,25.33
2023-05-05T00:59:33.978Z,28.00
2023-05-05T01:02:36.778Z,25.00
2023-05-05T01:06:11.150Z,24.67
2023-05-05T01:09:42.666Z,23.00
2023-05-05T01:13:19.457Z,21.67
2023-05-05T01:16:26.006Z,28.67
2023-05-05T01:19:49.727Z,28.33
2023-05-05T01:22:58.675Z,28.67
2023-05-05T01:26:39.396Z,23.00
2023-05-05T01:30:11.506Z,28.67
2023-05-05T01:33:16.286Z,30.00
2023-05-05T01:36:24.603Z,24.33
2023-05-05T01:39:31.965Z,21.00
2023-05-05T01:42:35.656Z,26.67
2023-05-05T01:45:39.599Z,25.33
2023-05-05T01:48:43.577Z,29.00
2023-05-05T01:51:47.560Z,28.00
2023-05-05T01:54:51.055Z,33.67
2023-05-05T01:57:55.339Z,32.00
2023-05-05T02:00:58.946Z,31.67
2023-05-05T02:04:03.796Z,30.33
2023-05-05T02:07:06.994Z,24.33
2023-05-05T02:10:10.894Z,28.00
2023-05-05T02:13:13.527Z,31.00
2023-05-05T02:16:17.292Z,33.00
2023-05-05T02:19:21.868Z,31.00
2023-05-05T02:22:25.410Z,32.00
2023-05-05T02:25:35.185Z,33.67
2023-05-05T02:29:07.687Z,38.67
2023-05-05T02:32:15.037Z,38.67
2023-05-05T02:35:21.486Z,27.00
2023-05-05T02:38:27.821Z,39.00
2023-05-05T02:41:36.681Z,32.33
2023-05-05T02:44:45.918Z,32.00
2023-05-05T02:47:49.772Z,29.00
2023-05-05T02:50:52.579Z,38.67
2023-05-05T02:54:06.896Z,31.67
2023-05-05T02:57:11.690Z,32.67
2023-05-05T03:00:40.505Z,34.67
2023-05-05T03:04:07.817Z,33.33
2023-05-05T03:07:26.739Z,39.00
2023-05-05T03:10:56.326Z,38.67
2023-05-05T03:14:09.268Z,37.00
2023-05-05T03:17:13.937Z,32.67
2023-05-05T03:20:17.307Z,43.67
2023-05-05T03:23:23.428Z,40.67
2023-05-05T03:26:31.711Z,43.67
2023-05-05T03:29:34.244Z,39.67
2023-05-05T03:32:38.642Z,43.00
2023-05-05T03:35:41.071Z,50.00
2023-05-05T03:38:46.817Z,41.33
2023-05-05T03:41:49.572Z,49.00
2023-05-05T03:44:54.641Z,51.67
2023-05-05T03:47:58.566Z,35.33
2023-05-05T03:51:01.333Z,46.67
2023-05-05T03:54:06.696Z,51.00
2023-05-05T03:57:09.725Z,36.67
2023-05-05T04:00:12.721Z,43.67
2023-05-05T04:03:18.529Z,51.67
2023-05-05T04:06:23.967Z,44.00
2023-05-05T04:09:26.843Z,52.00
2023-05-05T04:12:30.290Z,52.00
2023-05-05T04:15:33.474Z,47.00
2023-05-05T04:18:37.490Z,43.00
2023-05-05T04:21:40.853Z,37.67
2023-05-05T04:24:44.590Z,43.33
2023-05-05T04:27:48.576Z,32.00
2023-05-05T04:30:51.758Z,36.33
2023-05-05T04:33:54.259Z,33.00
2023-05-05T04:36:57.411Z,33.33
2023-05-05T04:40:00.073Z,30.00
2023-05-05T04:43:04.123Z,32.33
2023-05-05T04:46:08.476Z,38.33
2023-05-05T04:49:13.888Z,28.33
2023-05-05T04:52:16.359Z,33.33
2023-05-05T04:55:19.215Z,35.67
2023-05-05T04:58:21.761Z,32.33
2023-05-05T05:01:24.601Z,28.25
2023-05-05T05:04:27.612Z,26.75
2023-05-05T05:07:30.602Z,25.50
2023-05-05T05:10:33.068Z,20.50
2023-05-05T05:13:35.809Z,31.75
2023-05-05T05:16:38.327Z,21.75
2023-05-05T05:19:41.766Z,25.00
2023-05-05T05:22:44.249Z,25.25
2023-05-05T05:25:51.493Z,16.00
2023-05-05T05:28:55.943Z,15.25
2023-05-05T05:31:59.014Z,18.75
2023-05-05T05:35:01.592Z,18.00
2023-05-05T05:38:04.538Z,17.50
2023-05-05T05:41:10.247Z,12.25
2023-05-05T05:44:14.905Z,16.00
2023-05-05T05:47:17.349Z,14.25
2023-05-05T05:50:23.508Z,18.25
2023-05-05T05:53:26.371Z,20.25
2023-05-05T05:56:30.298Z,14.00
2023-05-05T05:59:33.272Z,15.50
2023-05-05T06:02:36.405Z,15.75
2023-05-05T06:05:39.092Z,18.50
2023-05-05T06:08:42.501Z,15.00
2023-05-05T06:11:44.919Z,16.25
2023-05-05T06:14:47.841Z,18.25
2023-05-05T06:17:50.287Z,15.00
2023-05-05T06:20:53.183Z,14.75
2023-05-05T06:23:58.698Z,17.50
2023-05-05T06:27:02.733Z,13.50
2023-05-05T06:30:07.408Z,19.00
2023-05-05T06:33:10.371Z,9.75
2023-05-05T06:36:12.816Z,17.00
2023-05-05T06:39:16.132Z,15.00
2023-05-05T06:42:18.688Z,12.00
2023-05-05T06:45:22.495Z,12.25
2023-05-05T06:48:24.937Z,14.00
2023-05-05T06:51:27.912Z,11.50
2023-05-05T06:54:30.323Z,11.00
2023-05-05T06:57:33.132Z,10.50
2023-05-05T07:00:35.501Z,14.75
2023-05-05T07:03:38.464Z,17.75
2023-05-05T07:06:41.040Z,11.00
2023-05-05T07:09:45.263Z,13.75
2023-05-05T07:12:49.369Z,14.25
2023-05-05T07:15:52.133Z,14.50
2023-05-05T07:18:54.615Z,11.00
2023-05-05T07:21:57.556Z,10.00
2023-05-05T07:25:00.008Z,12.00
2023-05-05T07:28:03.118Z,13.75
2023-05-05T07:31:05.703Z,11.00
2023-05-05T07:34:09.328Z,11.75
2023-05-05T07:37:11.800Z,8.50
2023-05-05T07:40:14.634Z,10.75
2023-05-05T07:43:16.976Z,9.75
2023-05-05T07:46:20.157Z,14.50
2023-05-05T07:49:22.695Z,8.75
2023-05-05T07:52:43.310Z,7.50
2023-05-05T07:55:47.402Z,13.25
2023-05-05T07:58:50.246Z,10.00
2023-05-05T08:01:54.334Z,8.75
2023-05-05T08:04:57.749Z,10.25
2023-05-05T08:08:00.208Z,10.00
2023-05-05T08:11:03.545Z,8.00
2023-05-05T08:14:05.964Z,13.50
2023-05-05T08:17:09.083Z,9.50
2023-05-05T08:20:12.160Z,9.50
2023-05-05T08:23:14.856Z,6.00
2023-05-05T08:26:17.478Z,8.75
2023-05-05T08:29:20.222Z,10.25
2023-05-05T08:32:22.677Z,7.00
2023-05-05T08:35:25.625Z,12.00
2023-05-05T08:38:28.205Z,9.50
2023-05-05T08:41:31.178Z,9.50
2023-05-05T08:44:34.065Z,7.75
2023-05-05T08:47:37.748Z,7.75
2023-05-05T08:50:40.816Z,6.75
2023-05-05T08:53:56.078Z,4.75
2023-05-05T08:57:02.164Z,9.50
2023-05-05T09:00:05.666Z,5.25
2023-05-05T09:03:08.256Z,5.75
2023-05-05T09:06:11.581Z,9.25
2023-05-05T09:09:14.559Z,7.00
2023-05-05T09:12:18.820Z,6.50
2023-05-05T09:15:21.262Z,6.50
2023-05-05T09:18:24.075Z,6.75
2023-05-05T09:21:26.720Z,8.00
2023-05-05T09:24:29.536Z,7.50
2023-05-05T09:27:36.405Z,7.50
2023-05-05T09:30:40.709Z,6.25
2023-05-05T09:33:43.884Z,9.25
2023-05-05T09:36:48.201Z,6.75
2023-05-05T09:39:55.160Z,5.75
2023-05-05T09:43:03.134Z,7.00
2023-05-05T09:46:07.836Z,9.00
2023-05-05T09:49:18.697Z,7.00
2023-05-05T09:52:21.263Z,6.25
2023-05-05T09:55:24.903Z,8.50
2023-05-05T09:58:29.035Z,7.75
2023-05-05T10:01:31.803Z,6.25
2023-05-05T10:07:51.007Z,3.50
2023-05-05T10:11:07.415Z,6.25
2023-05-05T10:14:14.331Z,6.50
2023-05-05T10:17:17.140Z,5.25
2023-05-05T10:20:21.418Z,4.50
2023-05-05T10:23:25.090Z,6.00
2023-05-05T10:26:28.170Z,7.50
2023-05-05T10:29:42.662Z,5.75
2023-05-05T10:33:03.441Z,8.00
2023-05-05T10:36:12.926Z,8.25
2023-05-05T10:39:17.305Z,4.00
2023-05-05T10:42:20.772Z,8.50
2023-05-05T10:45:23.649Z,9.00
2023-05-05T10:48:43.151Z,7.50
2023-05-05T10:51:51.807Z,10.25
2023-05-05T10:55:15.851Z,9.25
2023-05-05T10:58:47.107Z,6.25
2023-05-05T11:01:58.512Z,9.00
2023-05-05T11:05:15.262Z,7.75
2023-05-05T11:08:27.892Z,6.00
2023-05-05T11:12:04.228Z,0.00
2023-05-05T11:15:31.636Z,7.00
2023-05-05T11:18:36.568Z,9.00
2023-05-05T11:22:04.713Z,6.00
2023-05-05T11:25:41.034Z,9.00
2023-05-05T11:29:00.338Z,6.75
2023-05-05T11:32:13.326Z,5.75
2023-05-05T11:35:16.481Z,7.25
2023-05-05T11:38:22.292Z,7.75
2023-05-05T11:41:35.426Z,10.75
2023-05-05T11:44:38.032Z,6.00
2023-05-05T11:47:40.887Z,7.50
2023-05-05T11:50:43.307Z,9.00
2023-05-05T11:53:47.708Z,7.50
2023-05-05T11:56:51.434Z,8.00
2023-05-05T11:59:57.163Z,10.00
2023-05-05T12:02:59.940Z,6.00
2023-05-05T12:06:04.244Z,7.50
2023-05-05T12:09:21.123Z,9.50
2023-05-05T12:12:42.487Z,7.00
2023-05-05T12:15:45.113Z,8.00
2023-05-05T12:18:48.101Z,5.67
2023-05-05T12:21:50.636Z,8.00
2023-05-05T12:24:57.893Z,9.00
2023-05-05T12:28:00.350Z,8.75
2023-05-05T12:31:03.930Z,6.25
2023-05-05T12:34:09.895Z,9.25
2023-05-05T12:37:12.740Z,9.00
2023-05-05T12:40:44.237Z,11.00
2023-05-05T12:43:47.930Z,8.00
2023-05-05T12:46:53.139Z,7.25
2023-05-05T12:49:56.265Z,7.00
2023-05-05T12:52:58.699Z,8.50
2023-05-05T12:56:01.389Z,8.75
2023-05-05T12:59:29.255Z,7.00
2023-05-05T13:02:35.522Z,7.25
2023-05-05T13:05:38.003Z,5.75
2023-05-05T13:08:44.066Z,7.00
2023-05-05T13:11:46.537Z,9.25
2023-05-05T13:14:49.367Z,7.00
2023-05-05T13:17:58.451Z,5.75
2023-05-05T13:21:01.212Z,6.00
2023-05-05T13:27:09.860Z,7.00
2023-05-05T13:30:12.697Z,6.50
2023-05-05T13:33:15.417Z,7.00
2023-05-05T13:36:17.966Z,10.25
2023-05-05T13:39:21.082Z,7.75
2023-05-05T13:42:25.031Z,7.25
2023-05-05T13:45:27.822Z,6.25
2023-05-05T13:48:30.256Z,5.25
2023-05-05T13:51:34.973Z,6.25
2023-05-05T13:54:37.810Z,7.00
2023-05-05T13:57:40.500Z,10.00
2023-05-05T14:00:43.215Z,7.00
2023-05-05T14:03:46.145Z,7.00
2023-05-05T14:06:48.653Z,7.75
2023-05-05T16:02:56.246Z,4.00
2023-05-05T16:05:58.703Z,5.75
2023-05-05T16:09:01.474Z,6.75
2023-05-05T16:12:04.361Z,5.50
2023-05-05T16:15:07.844Z,5.75
2023-05-05T16:18:10.814Z,5.75
2023-05-05T16:21:13.708Z,5.75
2023-05-05T16:24:17.095Z,4.75
2023-05-05T16:27:19.928Z,4.50
2023-05-05T16:30:22.996Z,5.00
2023-05-05T16:33:25.866Z,4.75
2023-05-05T16:36:28.605Z,8.00
2023-05-05T16:39:33.207Z,4.75
2023-05-05T16:42:35.563Z,4.25
2023-05-05T16:45:38.389Z,6.00
2023-05-05T16:48:41.281Z,6.25
2023-05-05T16:51:44.478Z,6.00
2023-05-05T16:54:48.408Z,9.00
2023-05-05T16:57:51.178Z,8.25
2023-05-05T17:00:54.009Z,7.75
2023-05-05T17:03:58.048Z,6.25
2023-05-05T17:07:00.534Z,8.75
2023-05-05T17:10:03.281Z,8.00
2023-05-05T17:13:05.748Z,9.25
2023-05-05T17:16:08.598Z,7.00
2023-05-05T17:19:10.974Z,6.25
2023-05-05T17:22:13.838Z,9.50
2023-05-05T17:25:16.267Z,8.00
2023-05-05T17:28:20.361Z,3.00
2023-05-05T17:31:22.813Z,8.00
2023-05-05T17:34:25.765Z,8.00
2023-05-05T17:37:28.673Z,6.50
2023-05-05T17:40:31.324Z,7.75
2023-05-05T17:43:34.114Z,10.25
2023-05-05T17:46:37.633Z,10.25
2023-05-05T17:49:40.452Z,8.00
2023-05-05T17:52:44.128Z,7.00
2023-05-05T17:55:47.176Z,7.00
2023-05-05T17:58:49.632Z,7.00
2023-05-05T18:01:52.281Z,9.25
2023-05-05T18:04:55.349Z,5.75
2023-05-05T18:07:58.430Z,9.00
2023-05-05T18:11:02.112Z,7.50
2023-05-05T18:14:05.069Z,9.00
2023-05-05T18:17:07.906Z,9.75
2023-05-05T18:20:11.265Z,12.50
2023-05-05T18:23:13.990Z,18.50
2023-05-05T18:26:17.631Z,9.50
2023-05-05T18:29:22.102Z,10.25
2023-05-05T18:32:24.943Z,13.00
2023-05-05T18:35:28.228Z,10.50
2023-05-05T18:38:31.833Z,12.75
2023-05-05T18:41:35.902Z,12.75
2023-05-05T18:44:40.415Z,11.50
2023-05-05T18:47:43.369Z,13.75
2023-05-05T18:50:47.082Z,12.25
2023-05-05T18:53:50.206Z,12.00
2023-05-05T18:56:53.081Z,10.00
2023-05-05T18:59:55.836Z,12.75
2023-05-05T19:02:58.777Z,7.00
2023-05-05T19:06:06.191Z,12.25
2023-05-05T19:09:09.298Z,14.25
2023-05-05T19:12:11.854Z,12.50
2023-05-05T19:15:14.893Z,11.00
2023-05-05T19:18:17.534Z,14.75
2023-05-05T19:21:20.401Z,18.50
2023-05-05T19:24:22.892Z,17.25
2023-05-05T19:27:27.445Z,5.75
2023-05-05T19:30:30.786Z,15.00
2023-05-05T19:33:34.377Z,15.75
2023-05-05T19:36:36.827Z,15.00
2023-05-05T19:39:40.157Z,11.75
2023-05-05T19:42:44.066Z,17.25
2023-05-05T19:45:48.106Z,17.25
2023-05-05T19:48:51.198Z,15.25
2023-05-05T19:51:55.310Z,14.25
2023-05-05T19:54:59.072Z,17.25
2023-05-05T19:58:01.801Z,14.75
2023-05-05T20:01:04.244Z,14.50
2023-05-05T20:04:07.720Z,18.00
2023-05-05T20:07:10.332Z,21.00
2023-05-05T20:10:16.927Z,13.50
2023-05-05T20:13:20.127Z,17.00
2023-05-05T20:16:23.016Z,17.75
2023-05-05T20:19:25.473Z,23.25
2023-05-05T20:22:28.278Z,20.00
2023-05-05T20:25:30.924Z,20.50
2023-05-05T20:28:34.455Z,19.25
2023-05-05T20:31:39.159Z,16.00
2023-05-05T20:34:41.933Z,20.50
2023-05-05T20:38:11.117Z,18.00
2023-05-05T20:41:33.453Z,17.25
2023-05-05T20:45:58.572Z,16.25
2023-05-05T20:54:00.002Z,18.75
2023-05-05T21:02:00.947Z,17.50
2023-05-05T21:10:25.576Z,15.75
2023-05-05T21:13:29.260Z,15.50
2023-05-05T21:17:16.762Z,17.50
2023-05-05T21:20:43.514Z,17.75
2023-05-05T21:23:48.145Z,15.50
2023-05-05T21:27:03.166Z,19.50
2023-05-05T21:30:35.753Z,15.50
2023-05-05T21:34:02.648Z,18.00
2023-05-05T21:41:13.090Z,16.50
2023-05-05T21:45:00.232Z,16.75
2023-05-05T21:48:06.791Z,16.50
2023-05-05T21:51:34.880Z,14.75
2023-05-05T21:54:37.916Z,16.25
2023-05-05T21:57:59.018Z,21.00
2023-05-05T22:01:02.493Z,14.75
2023-05-05T22:04:05.770Z,12.75
2023-05-05T22:10:49.301Z,24.75
2023-05-05T22:13:52.244Z,18.00
2023-05-05T22:16:56.923Z,24.75
2023-05-05T22:23:41.709Z,27.25
2023-05-05T22:26:44.185Z,24.25
2023-05-05T22:29:47.157Z,22.00
2023-05-05T22:32:49.799Z,20.75
2023-05-05T22:35:53.652Z,23.50
2023-05-05T22:38:56.460Z,21.75
2023-05-05T22:41:59.102Z,21.25
2023-05-05T22:45:01.569Z,24.00
2023-05-05T22:48:04.734Z,23.25
2023-05-05T22:51:07.780Z,22.50
2023-05-05T22:54:10.896Z,19.00
2023-05-05T22:57:13.368Z,21.50
2023-05-05T23:00:16.171Z,15.25
2023-05-05T23:03:18.699Z,16.25
2023-05-05T23:06:21.407Z,14.50
2023-05-05T23:09:23.995Z,14.50
2023-05-05T23:12:26.703Z,13.75
2023-05-05T23:15:29.113Z,12.00
2023-05-05T23:18:32.072Z,10.50
2023-05-05T23:21:52.033Z,13.25
2023-05-05T23:24:55.380Z,19.00
2023-05-05T23:27:59.245Z,11.50
2023-05-05T23:31:02.190Z,15.00
2023-05-05T23:34:04.689Z,12.00
2023-05-05T23:37:07.284Z,11.75
2023-05-05T23:40:09.969Z,13.25
2023-05-05T23:43:13.080Z,12.25
2023-05-05T23:46:15.840Z,14.50
2023-05-05T23:49:18.765Z,9.25
2023-05-05T23:52:21.204Z,13.00
2023-05-05T23:55:24.087Z,13.25
2023-05-05T23:58:26.885Z,9.75
